sensor_id;sensor_type;location;lat;lon;timestamp;pressure;altitude;pressure_sealevel;temperature;humidity
78741;BME280;68062;48.726;9.370;2023-04-08T00:01:11;98985.31;;;7.29;100.00
78741;BME280;68062;48.726;9.370;2023-04-08T00:03:38;98983.53;;;7.25;100.00
78741;BME280;68062;48.726;9.370;2023-04-08T00:06:05;98984.47;;;7.29;100.00
78741;BME280;68062;48.726;9.370;2023-04-08T00:08:33;98960.34;;;7.13;100.00
78741;BME280;68062;48.726;9.370;2023-04-08T00:11:00;98984.41;;;7.27;100.00
78741;BME280;68062;48.726;9.370;2023-04-08T00:13:26;98990.91;;;7.05;100.00
78741;BME280;68062;48.726;9.370;2023-04-08T00:15:54;98980.59;;;6.99;100.00
78741;BME280;68062;48.726;9.370;2023-04-08T00:18:21;98982.47;;;7.09;100.00
78741;BME280;68062;48.726;9.370;2023-04-08T00:20:48;98979.94;;;7.12;100.00
78741;BME280;68062;48.726;9.370;2023-04-08T00:23:15;98978.28;;;7.14;100.00
78741;BME280;68062;48.726;9.370;2023-04-08T00:25:42;98973.84;;;7.05;100.00
78741;BME280;68062;48.726;9.370;2023-04-08T00:28:09;98977.56;;;7.25;100.00
78741;BME280;68062;48.726;9.370;2023-04-08T00:30:35;98983.47;;;7.20;100.00
78741;BME280;68062;48.726;9.370;2023-04-08T00:33:04;98981.63;;;7.10;100.00
78741;BME280;68062;48.726;9.370;2023-04-08T00:35:30;98981.53;;;7.04;100.00
78741;BME280;68062;48.726;9.370;2023-04-08T00:37:57;98987.53;;;7.06;100.00
78741;BME280;68062;48.726;9.370;2023-04-08T00:40:23;98989.16;;;7.01;100.00
78741;BME280;68062;48.726;9.370;2023-04-08T00:42:50;98993.34;;;6.97;100.00
78741;BME280;68062;48.726;9.370;2023-04-08T00:45:17;98987.41;;;7.00;100.00
78741;BME280;68062;48.726;9.370;2023-04-08T00:47:43;98991.66;;;6.98;100.00
78741;BME280;68062;48.726;9.370;2023-04-08T00:50:12;98996.72;;;6.95;100.00
78741;BME280;68062;48.726;9.370;2023-04-08T00:52:39;98958.69;;;6.64;100.00
78741;BME280;68062;48.726;9.370;2023-04-08T00:55:06;98994.13;;;6.93;100.00
78741;BME280;68062;48.726;9.370;2023-04-08T00:57:33;99001.84;;;6.96;100.00
78741;BME280;68062;48.726;9.370;2023-04-08T01:00:00;99001.81;;;6.95;100.00
78741;BME280;68062;48.726;9.370;2023-04-08T01:02:34;98996.72;;;6.95;100.00
78741;BME280;68062;48.726;9.370;2023-04-08T01:05:04;98992.34;;;6.89;100.00
78741;BME280;68062;48.726;9.370;2023-04-08T01:07:36;98987.22;;;6.89;100.00
78741;BME280;68062;48.726;9.370;2023-04-08T01:10:06;98987.16;;;6.84;100.00
78741;BME280;68062;48.726;9.370;2023-04-08T01:12:42;98996.56;;;6.85;100.00
78741;BME280;68062;48.726;9.370;2023-04-08T01:15:10;98992.19;;;6.80;100.00
78741;BME280;68062;48.726;9.370;2023-04-08T01:17:38;98997.41;;;6.84;100.00
78741;BME280;68062;48.726;9.370;2023-04-08T01:20:06;98999.84;;;6.78;100.00
78741;BME280;68062;48.726;9.370;2023-04-08T01:22:45;99006.72;;;6.82;100.00
78741;BME280;68062;48.726;9.370;2023-04-08T01:25:38;99000.69;;;6.77;100.00
78741;BME280;68062;48.726;9.370;2023-04-08T01:28:10;99005.81;;;6.78;100.00
78741;BME280;68062;48.726;9.370;2023-04-08T01:30:38;99012.75;;;6.86;100.00
78741;BME280;68062;48.726;9.370;2023-04-08T01:33:06;99001.63;;;6.82;100.00
78741;BME280;68062;48.726;9.370;2023-04-08T01:35:34;99009.25;;;6.79;100.00
78741;BME280;68062;48.726;9.370;2023-04-08T01:38:02;99004.78;;;6.69;100.00
78741;BME280;68062;48.726;9.370;2023-04-08T01:40:30;99002.13;;;6.64;100.00
78741;BME280;68062;48.726;9.370;2023-04-08T01:42:59;99005.06;;;6.86;100.00
78741;BME280;68062;48.726;9.370;2023-04-08T01:45:29;98998.44;;;6.96;100.00
78741;BME280;68062;48.726;9.370;2023-04-08T01:47:57;98993.22;;;6.89;100.00
78741;BME280;68062;48.726;9.370;2023-04-08T01:50:25;98999.75;;;6.73;100.00
78741;BME280;68062;48.726;9.370;2023-04-08T01:52:53;98997.13;;;6.69;100.00
78741;BME280;68062;48.726;9.370;2023-04-08T01:55:21;98960.97;;;6.47;100.00
78741;BME280;68062;48.726;9.370;2023-04-08T01:57:50;98977.31;;;6.55;100.00
78741;BME280;68062;48.726;9.370;2023-04-08T02:00:23;98995.28;;;6.60;100.00
78741;BME280;68062;48.726;9.370;2023-04-08T02:02:53;98989.97;;;6.49;100.00
78741;BME280;68062;48.726;9.370;2023-04-08T02:05:21;98943.47;;;6.21;100.00
78741;BME280;68062;48.726;9.370;2023-04-08T02:07:48;99000.25;;;6.52;100.00
78741;BME280;68062;48.726;9.370;2023-04-08T02:10:15;98998.50;;;6.50;100.00
78741;BME280;68062;48.726;9.370;2023-04-08T02:12:42;98992.72;;;6.60;100.00
78741;BME280;68062;48.726;9.370;2023-04-08T02:15:10;98992.72;;;6.60;100.00
78741;BME280;68062;48.726;9.370;2023-04-08T02:17:43;99002.91;;;6.57;100.00
78741;BME280;68062;48.726;9.370;2023-04-08T02:20:16;99001.19;;;6.57;100.00
78741;BME280;68062;48.726;9.370;2023-04-08T02:22:47;99005.69;;;6.71;100.00
78741;BME280;68062;48.726;9.370;2023-04-08T02:25:16;99003.03;;;6.66;100.00
78741;BME280;68062;48.726;9.370;2023-04-08T02:27:44;98999.53;;;6.59;100.00
78741;BME280;68062;48.726;9.370;2023-04-08T02:30:14;99003.03;;;6.66;100.00
78741;BME280;68062;48.726;9.370;2023-04-08T02:32:42;98999.53;;;6.59;100.00
78741;BME280;68062;48.726;9.370;2023-04-08T02:35:10;98998.81;;;6.68;100.00
78741;BME280;68062;48.726;9.370;2023-04-08T02:37:39;98997.97;;;6.68;100.00
78741;BME280;68062;48.726;9.370;2023-04-08T02:40:22;99009.91;;;6.70;100.00
78741;BME280;68062;48.726;9.370;2023-04-08T02:42:49;99003.84;;;6.62;100.00
78741;BME280;68062;48.726;9.370;2023-04-08T02:45:16;99009.69;;;6.55;100.00
78741;BME280;68062;48.726;9.370;2023-04-08T02:47:42;99011.41;;;6.57;100.00
78741;BME280;68062;48.726;9.370;2023-04-08T02:50:10;99007.84;;;6.47;100.00
78741;BME280;68062;48.726;9.370;2023-04-08T02:52:36;99003.63;;;6.51;100.00
78741;BME280;68062;48.726;9.370;2023-04-08T02:55:06;99000.41;;;6.60;100.00
78741;BME280;68062;48.726;9.370;2023-04-08T02:57:34;99005.34;;;6.51;100.00
78741;BME280;68062;48.726;9.370;2023-04-08T03:00:02;99006.19;;;6.51;100.00
78741;BME280;68062;48.726;9.370;2023-04-08T03:02:30;99007.13;;;6.56;100.00
78741;BME280;68062;48.726;9.370;2023-04-08T03:04:56;99008.84;;;6.56;100.00
78741;BME280;68062;48.726;9.370;2023-04-08T03:07:23;99010.34;;;6.46;100.00
78741;BME280;68062;48.726;9.370;2023-04-08T03:09:49;99001.22;;;6.59;100.00
78741;BME280;68062;48.726;9.370;2023-04-08T03:12:17;98994.19;;;6.47;100.00
78741;BME280;68062;48.726;9.370;2023-04-08T03:14:44;99020.72;;;6.54;100.00
78741;BME280;68062;48.726;9.370;2023-04-08T03:17:10;99010.34;;;6.46;100.00
78741;BME280;68062;48.726;9.370;2023-04-08T03:19:37;99014.56;;;6.42;100.00
78741;BME280;68062;48.726;9.370;2023-04-08T03:22:03;99017.09;;;6.42;100.00
78741;BME280;68062;48.726;9.370;2023-04-08T03:24:30;99016.19;;;6.39;100.00
78741;BME280;68062;48.726;9.370;2023-04-08T03:26:57;99014.78;;;6.56;100.00
78741;BME280;68062;48.726;9.370;2023-04-08T03:29:25;99017.41;;;6.59;100.00
78741;BME280;68062;48.726;9.370;2023-04-08T03:31:52;99020.56;;;6.44;100.00
78741;BME280;68062;48.726;9.370;2023-04-08T03:34:18;99016.00;;;6.29;100.00
78741;BME280;68062;48.726;9.370;2023-04-08T03:36:45;99024.66;;;6.38;100.00
78741;BME280;68062;48.726;9.370;2023-04-08T03:39:13;99014.91;;;6.16;100.00
78741;BME280;68062;48.726;9.370;2023-04-08T03:41:39;99021.75;;;6.17;100.00
78741;BME280;68062;48.726;9.370;2023-04-08T03:44:06;99022.75;;;6.26;100.00
78741;BME280;68062;48.726;9.370;2023-04-08T03:46:34;99020.22;;;6.27;100.00
78741;BME280;68062;48.726;9.370;2023-04-08T03:49:01;99022.75;;;6.26;100.00
78741;BME280;68062;48.726;9.370;2023-04-08T03:51:27;99017.91;;;6.40;100.00
78741;BME280;68062;48.726;9.370;2023-04-08T03:53:55;99019.59;;;6.39;100.00
78741;BME280;68062;48.726;9.370;2023-04-08T03:56:22;99021.31;;;6.40;100.00
78741;BME280;68062;48.726;9.370;2023-04-08T03:58:49;99019.38;;;6.28;100.00
78741;BME280;68062;48.726;9.370;2023-04-08T04:01:16;99015.63;;;6.11;100.00
78741;BME280;68062;48.726;9.370;2023-04-08T04:03:44;99011.34;;;6.08;100.00
78741;BME280;68062;48.726;9.370;2023-04-08T04:06:11;99014.63;;;6.02;100.00
78741;BME280;68062;48.726;9.370;2023-04-08T04:08:38;99016.22;;;5.99;100.00
78741;BME280;68062;48.726;9.370;2023-04-08T04:11:04;99017.00;;;5.96;100.00
78741;BME280;68062;48.726;9.370;2023-04-08T04:13:31;99011.97;;;5.99;100.00
78741;BME280;68062;48.726;9.370;2023-04-08T04:15:58;99018.59;;;5.89;100.00
78741;BME280;68062;48.726;9.370;2023-04-08T04:18:24;99020.00;;;5.77;100.00
78741;BME280;68062;48.726;9.370;2023-04-08T04:20:53;99017.25;;;5.67;100.00
78741;BME280;68062;48.726;9.370;2023-04-08T04:23:19;99022.13;;;5.56;100.00
78741;BME280;68062;48.726;9.370;2023-04-08T04:25:48;99019.53;;;5.55;100.00
78741;BME280;68062;48.726;9.370;2023-04-08T04:28:15;99027.00;;;5.47;100.00
78741;BME280;68062;48.726;9.370;2023-04-08T04:30:42;99029.50;;;5.45;100.00
78741;BME280;68062;48.726;9.370;2023-04-08T04:33:08;99026.88;;;5.42;100.00
78741;BME280;68062;48.726;9.370;2023-04-08T04:35:35;99034.44;;;5.38;100.00
78741;BME280;68062;48.726;9.370;2023-04-08T04:38:03;99036.03;;;5.33;100.00
78741;BME280;68062;48.726;9.370;2023-04-08T04:40:35;99035.06;;;5.27;100.00
78741;BME280;68062;48.726;9.370;2023-04-08T04:43:01;99035.94;;;5.28;100.00
78741;BME280;68062;48.726;9.370;2023-04-08T04:45:28;99033.31;;;5.25;100.00
78741;BME280;68062;48.726;9.370;2023-04-08T04:47:55;99032.50;;;5.27;100.00
78741;BME280;68062;48.726;9.370;2023-04-08T04:50:21;99033.47;;;5.33;100.00
78741;BME280;68062;48.726;9.370;2023-04-08T04:52:48;99033.56;;;5.36;100.00
78741;BME280;68062;48.726;9.370;2023-04-08T04:55:16;99040.44;;;5.40;100.00
78741;BME280;68062;48.726;9.370;2023-04-08T04:57:42;99046.53;;;5.45;100.00
78741;BME280;68062;48.726;9.370;2023-04-08T05:00:11;99045.84;;;5.52;100.00
78741;BME280;68062;48.726;9.370;2023-04-08T05:02:37;99045.97;;;5.58;100.00
78741;BME280;68062;48.726;9.370;2023-04-08T05:05:05;99057.09;;;5.62;100.00
78741;BME280;68062;48.726;9.370;2023-04-08T05:07:34;99054.75;;;5.71;100.00
78741;BME280;68062;48.726;9.370;2023-04-08T05:10:01;99054.13;;;5.82;100.00
78741;BME280;68062;48.726;9.370;2023-04-08T05:12:29;99056.88;;;5.89;100.00
78741;BME280;68062;48.726;9.370;2023-04-08T05:14:57;99052.69;;;5.93;100.00
78741;BME280;68062;48.726;9.370;2023-04-08T05:17:23;99030.41;;;5.86;100.00
78741;BME280;68062;48.726;9.370;2023-04-08T05:19:50;99010.47;;;5.68;100.00
78741;BME280;68062;48.726;9.370;2023-04-08T05:22:18;99034.53;;;5.81;100.00
78741;BME280;68062;48.726;9.370;2023-04-08T05:24:44;99064.72;;;5.99;100.00
78741;BME280;68062;48.726;9.370;2023-04-08T05:27:11;99066.34;;;5.95;100.00
78741;BME280;68062;48.726;9.370;2023-04-08T05:29:39;99065.72;;;6.04;100.00
78741;BME280;68062;48.726;9.370;2023-04-08T05:32:05;99066.63;;;6.08;100.00
78741;BME280;68062;48.726;9.370;2023-04-08T05:34:32;99068.78;;;6.29;100.00
78741;BME280;68062;48.726;9.370;2023-04-08T05:36:59;99069.88;;;6.40;100.00
78741;BME280;68062;48.726;9.370;2023-04-08T05:39:25;99069.19;;;6.49;100.00
78741;BME280;68062;48.726;9.370;2023-04-08T05:41:52;99074.84;;;6.34;100.00
78741;BME280;68062;48.726;9.370;2023-04-08T05:44:19;99072.31;;;6.36;100.00
78741;BME280;68062;48.726;9.370;2023-04-08T05:46:47;99074.97;;;6.40;100.00
78741;BME280;68062;48.726;9.370;2023-04-08T05:49:13;99072.38;;;6.37;100.00
78741;BME280;68062;48.726;9.370;2023-04-08T05:51:42;99081.69;;;6.35;100.00
78741;BME280;68062;48.726;9.370;2023-04-08T05:54:08;99076.78;;;6.46;100.00
78741;BME280;68062;48.726;9.370;2023-04-08T05:56:35;99085.44;;;6.53;100.00
78741;BME280;68062;48.726;9.370;2023-04-08T05:59:01;99086.34;;;6.56;100.00
78741;BME280;68062;48.726;9.370;2023-04-08T06:01:28;99084.66;;;6.57;100.00
78741;BME280;68062;48.726;9.370;2023-04-08T06:03:56;99094.84;;;6.55;100.00
78741;BME280;68062;48.726;9.370;2023-04-08T06:06:22;99101.81;;;6.64;100.00
78741;BME280;68062;48.726;9.370;2023-04-08T06:08:49;99101.88;;;6.66;100.00
78741;BME280;68062;48.726;9.370;2023-04-08T06:11:16;99108.00;;;6.75;100.00
78741;BME280;68062;48.726;9.370;2023-04-08T06:13:43;99102.69;;;6.65;100.00
78741;BME280;68062;48.726;9.370;2023-04-08T06:16:11;99110.09;;;6.51;100.00
78741;BME280;68062;48.726;9.370;2023-04-08T06:18:38;99112.78;;;6.58;100.00
78741;BME280;68062;48.726;9.370;2023-04-08T06:21:06;99111.31;;;6.70;100.00
78741;BME280;68062;48.726;9.370;2023-04-08T06:23:32;99115.44;;;6.63;100.00
78741;BME280;68062;48.726;9.370;2023-04-08T06:25:59;99114.63;;;6.66;100.00
78741;BME280;68062;48.726;9.370;2023-04-08T06:28:27;99107.03;;;6.70;100.00
78741;BME280;68062;48.726;9.370;2023-04-08T06:30:55;99119.13;;;6.77;100.00
78741;BME280;68062;48.726;9.370;2023-04-08T06:33:21;99111.84;;;6.99;100.00
78741;BME280;68062;48.726;9.370;2023-04-08T06:35:48;99064.66;;;6.80;100.00
78741;BME280;68062;48.726;9.370;2023-04-08T06:38:16;99116.91;;;6.96;100.00
78741;BME280;68062;48.726;9.370;2023-04-08T06:40:42;99115.28;;;7.00;100.00
78741;BME280;68062;48.726;9.370;2023-04-08T06:43:09;99118.63;;;6.96;100.00
78741;BME280;68062;48.726;9.370;2023-04-08T06:45:38;99116.34;;;7.13;100.00
78741;BME280;68062;48.726;9.370;2023-04-08T06:48:07;99129.91;;;7.07;100.00
78741;BME280;68062;48.726;9.370;2023-04-08T06:50:33;99129.84;;;7.05;100.00
78741;BME280;68062;48.726;9.370;2023-04-08T06:53:00;99128.34;;;7.15;100.00
78741;BME280;68062;48.726;9.370;2023-04-08T06:55:28;99128.84;;;7.45;100.00
78741;BME280;68062;48.726;9.370;2023-04-08T06:57:55;99117.34;;;7.21;100.00
78741;BME280;68062;48.726;9.370;2023-04-08T07:00:21;99131.41;;;7.45;100.00
78741;BME280;68062;48.726;9.370;2023-04-08T07:02:48;99128.94;;;7.51;100.00
78741;BME280;68062;48.726;9.370;2023-04-08T07:05:14;99134.41;;;7.73;100.00
78741;BME280;68062;48.726;9.370;2023-04-08T07:07:41;99137.38;;;8.02;98.44
78741;BME280;68062;48.726;9.370;2023-04-08T07:10:09;99134.72;;;7.94;98.28
78741;BME280;68062;48.726;9.370;2023-04-08T07:12:37;99132.53;;;7.61;98.60
78741;BME280;68062;48.726;9.370;2023-04-08T07:15:04;99133.78;;;7.34;100.00
78741;BME280;68062;48.726;9.370;2023-04-08T07:17:31;99139.56;;;7.24;100.00
78741;BME280;68062;48.726;9.370;2023-04-08T07:19:58;99137.03;;;7.24;100.00
78741;BME280;68062;48.726;9.370;2023-04-08T07:22:25;99138.03;;;7.33;100.00
78741;BME280;68062;48.726;9.370;2023-04-08T07:24:51;99141.53;;;7.39;100.00
78741;BME280;68062;48.726;9.370;2023-04-08T07:27:18;99139.16;;;7.49;100.00
78741;BME280;68062;48.726;9.370;2023-04-08T07:29:51;99144.25;;;8.05;97.40
78741;BME280;68062;48.726;9.370;2023-04-08T07:32:18;99140.25;;;8.24;95.51
78741;BME280;68062;48.726;9.370;2023-04-08T07:34:45;99139.19;;;8.08;95.97
78741;BME280;68062;48.726;9.370;2023-04-08T07:37:12;99148.34;;;8.52;94.29
78741;BME280;68062;48.726;9.370;2023-04-08T07:39:38;99140.25;;;8.24;94.95
78741;BME280;68062;48.726;9.370;2023-04-08T07:42:05;99150.03;;;7.91;95.69
78741;BME280;68062;48.726;9.370;2023-04-08T07:44:32;99154.16;;;8.40;91.96
78741;BME280;68062;48.726;9.370;2023-04-08T07:47:00;99146.63;;;8.51;91.76
78741;BME280;68062;48.726;9.370;2023-04-08T07:49:27;99154.59;;;8.11;95.35
78741;BME280;68062;48.726;9.370;2023-04-08T07:51:53;99155.19;;;8.51;91.36
78741;BME280;68062;48.726;9.370;2023-04-08T07:54:20;99153.00;;;8.82;89.03
78741;BME280;68062;48.726;9.370;2023-04-08T07:56:46;99119.53;;;8.73;89.52
78741;BME280;68062;48.726;9.370;2023-04-08T07:59:13;99155.22;;;9.36;89.38
78741;BME280;68062;48.726;9.370;2023-04-08T08:01:39;99149.91;;;9.15;87.30
78741;BME280;68062;48.726;9.370;2023-04-08T08:04:07;99148.06;;;9.01;87.51
78741;BME280;68062;48.726;9.370;2023-04-08T08:06:34;99146.56;;;9.23;86.67
78741;BME280;68062;48.726;9.370;2023-04-08T08:09:01;99154.94;;;8.36;92.43
78741;BME280;68062;48.726;9.370;2023-04-08T08:11:28;99151.81;;;8.57;90.59
78741;BME280;68062;48.726;9.370;2023-04-08T08:13:54;99158.69;;;8.61;92.06
78741;BME280;68062;48.726;9.370;2023-04-08T08:16:21;99155.41;;;8.72;91.62
78741;BME280;68062;48.726;9.370;2023-04-08T08:18:51;99162.19;;;8.65;89.69
78741;BME280;68062;48.726;9.370;2023-04-08T08:21:19;99158.22;;;8.25;91.25
78741;BME280;68062;48.726;9.370;2023-04-08T08:23:46;99164.91;;;8.16;93.57
78741;BME280;68062;48.726;9.370;2023-04-08T08:26:13;99173.75;;;8.38;92.68
78741;BME280;68062;48.726;9.370;2023-04-08T08:28:40;99173.19;;;8.58;91.76
78741;BME280;68062;48.726;9.370;2023-04-08T08:31:06;99177.50;;;8.59;92.48
78741;BME280;68062;48.726;9.370;2023-04-08T08:33:33;99179.75;;;9.06;89.36
78741;BME280;68062;48.726;9.370;2023-04-08T08:35:59;99166.50;;;9.54;83.50
78741;BME280;68062;48.726;9.370;2023-04-08T08:38:27;99162.06;;;8.57;88.27
78741;BME280;68062;48.726;9.370;2023-04-08T08:40:55;99165.94;;;8.29;89.61
78741;BME280;68062;48.726;9.370;2023-04-08T08:43:22;99177.06;;;8.95;86.30
78741;BME280;68062;48.726;9.370;2023-04-08T08:45:50;99168.22;;;8.70;83.74
78741;BME280;68062;48.726;9.370;2023-04-08T08:48:16;99176.28;;;9.01;85.24
78741;BME280;68062;48.726;9.370;2023-04-08T08:50:43;99177.09;;;8.97;84.02
78741;BME280;68062;48.726;9.370;2023-04-08T08:53:10;99170.66;;;9.39;80.45
78741;BME280;68062;48.726;9.370;2023-04-08T08:55:38;99179.22;;;9.41;81.60
78741;BME280;68062;48.726;9.370;2023-04-08T08:58:05;99178.72;;;9.83;77.28
78741;BME280;68062;48.726;9.370;2023-04-08T09:00:33;99178.41;;;10.60;73.54
78741;BME280;68062;48.726;9.370;2023-04-08T09:03:15;99181.81;;;10.65;72.88
78741;BME280;68062;48.726;9.370;2023-04-08T09:05:48;99177.78;;;11.46;70.20
78741;BME280;68062;48.726;9.370;2023-04-08T09:08:22;99178.66;;;11.59;67.11
78741;BME280;68062;48.726;9.370;2023-04-08T09:10:51;99179.50;;;11.54;66.75
78741;BME280;68062;48.726;9.370;2023-04-08T09:13:17;99179.38;;;12.62;64.79
78741;BME280;68062;48.726;9.370;2023-04-08T09:16:00;99186.00;;;13.22;64.51
78741;BME280;68062;48.726;9.370;2023-04-08T09:18:27;99179.75;;;14.53;61.48
78741;BME280;68062;48.726;9.370;2023-04-08T09:20:54;99186.56;;;13.71;59.25
78741;BME280;68062;48.726;9.370;2023-04-08T09:23:21;99178.88;;;14.54;56.71
78741;BME280;68062;48.726;9.370;2023-04-08T09:25:48;99185.59;;;13.80;59.75
78741;BME280;68062;48.726;9.370;2023-04-08T09:28:19;99178.56;;;13.99;55.39
78741;BME280;68062;48.726;9.370;2023-04-08T09:30:46;99128.13;;;14.39;52.33
78741;BME280;68062;48.726;9.370;2023-04-08T09:33:13;99180.41;;;13.85;55.26
78741;BME280;68062;48.726;9.370;2023-04-08T09:35:41;99181.72;;;13.18;58.15
78741;BME280;68062;48.726;9.370;2023-04-08T09:38:08;99170.69;;;14.11;54.73
78741;BME280;68062;48.726;9.370;2023-04-08T09:40:36;99171.72;;;13.95;55.41
78741;BME280;68062;48.726;9.370;2023-04-08T09:43:04;99172.34;;;12.95;57.85
78741;BME280;68062;48.726;9.370;2023-04-08T09:45:35;99170.75;;;12.73;56.93
78741;BME280;68062;48.726;9.370;2023-04-08T09:48:09;99171.56;;;12.81;58.87
78741;BME280;68062;48.726;9.370;2023-04-08T09:50:42;99173.50;;;12.00;62.04
78741;BME280;68062;48.726;9.370;2023-04-08T09:53:13;99179.41;;;11.02;63.84
78741;BME280;68062;48.726;9.370;2023-04-08T09:55:47;99171.72;;;12.42;60.53
78741;BME280;68062;48.726;9.370;2023-04-08T09:58:18;99166.44;;;12.75;60.29
78741;BME280;68062;48.726;9.370;2023-04-08T10:00:48;99169.19;;;11.44;63.75
78741;BME280;68062;48.726;9.370;2023-04-08T10:03:25;99153.69;;;12.33;61.85
78741;BME280;68062;48.726;9.370;2023-04-08T10:05:53;99167.41;;;12.40;61.12
78741;BME280;68062;48.726;9.370;2023-04-08T10:08:21;99176.91;;;12.28;63.59
78741;BME280;68062;48.726;9.370;2023-04-08T10:10:49;99174.34;;;11.89;62.49
78741;BME280;68062;48.726;9.370;2023-04-08T10:13:16;99174.19;;;10.79;63.96
78741;BME280;68062;48.726;9.370;2023-04-08T10:15:43;99181.16;;;11.19;64.16
78741;BME280;68062;48.726;9.370;2023-04-08T10:18:32;99176.09;;;12.00;63.13
78741;BME280;68062;48.726;9.370;2023-04-08T10:20:59;99167.50;;;11.74;63.26
78741;BME280;68062;48.726;9.370;2023-04-08T10:23:54;99169.19;;;11.83;63.45
78741;BME280;68062;48.726;9.370;2023-04-08T10:26:33;99168.25;;;12.46;60.74
78741;BME280;68062;48.726;9.370;2023-04-08T10:32:27;99158.91;;;11.63;63.36
78741;BME280;68062;48.726;9.370;2023-04-08T10:34:55;99177.81;;;11.87;64.21
78741;BME280;68062;48.726;9.370;2023-04-08T10:37:22;99162.34;;;12.04;62.42
78741;BME280;68062;48.726;9.370;2023-04-08T10:39:49;99162.31;;;12.19;62.03
78741;BME280;68062;48.726;9.370;2023-04-08T10:42:17;99177.78;;;11.50;62.91
78741;BME280;68062;48.726;9.370;2023-04-08T10:44:44;99185.31;;;10.78;63.95
78741;BME280;68062;48.726;9.370;2023-04-08T10:47:11;99179.00;;;10.20;64.92
78741;BME280;68062;48.726;9.370;2023-04-08T10:49:38;99184.25;;;10.37;64.30
78741;BME280;68062;48.726;9.370;2023-04-08T10:52:07;99185.69;;;9.96;64.82
78741;BME280;68062;48.726;9.370;2023-04-08T10:54:35;99180.41;;;9.78;65.57
78741;BME280;68062;48.726;9.370;2023-04-08T10:57:03;99172.94;;;10.12;64.28
78741;BME280;68062;48.726;9.370;2023-04-08T10:59:31;99181.41;;;9.98;64.86
78741;BME280;68062;48.726;9.370;2023-04-08T11:01:58;99186.59;;;10.03;66.56
78741;BME280;68062;48.726;9.370;2023-04-08T11:04:25;99191.00;;;10.24;66.36
78741;BME280;68062;48.726;9.370;2023-04-08T11:06:52;99178.91;;;10.06;65.29
78741;BME280;68062;48.726;9.370;2023-04-08T11:09:20;99175.69;;;10.38;64.74
78741;BME280;68062;48.726;9.370;2023-04-08T11:11:46;99174.25;;;11.06;62.26
78741;BME280;68062;48.726;9.370;2023-04-08T11:14:13;99107.84;;;10.11;62.21
78741;BME280;68062;48.726;9.370;2023-04-08T11:16:41;99144.16;;;10.80;62.51
78741;BME280;68062;48.726;9.370;2023-04-08T11:19:08;99161.25;;;10.56;59.50
78741;BME280;68062;48.726;9.370;2023-04-08T11:21:36;99144.72;;;10.21;58.51
78741;BME280;68062;48.726;9.370;2023-04-08T11:24:08;99174.94;;;10.55;58.38
78741;BME280;68062;48.726;9.370;2023-04-08T11:26:38;99168.13;;;10.72;57.33
78741;BME280;68062;48.726;9.370;2023-04-08T11:29:05;99152.72;;;10.75;56.43
78741;BME280;68062;48.726;9.370;2023-04-08T11:31:32;99181.66;;;10.36;57.01
78741;BME280;68062;48.726;9.370;2023-04-08T11:33:59;99174.06;;;10.54;56.60
78741;BME280;68062;48.726;9.370;2023-04-08T11:36:27;99167.19;;;10.45;56.50
78741;BME280;68062;48.726;9.370;2023-04-08T11:38:54;99171.44;;;10.40;55.87
78741;BME280;68062;48.726;9.370;2023-04-08T11:41:21;99173.25;;;10.58;56.17
78741;BME280;68062;48.726;9.370;2023-04-08T11:43:55;99177.22;;;10.10;55.50
78741;BME280;68062;48.726;9.370;2023-04-08T11:46:22;99164.25;;;9.91;55.68
78741;BME280;68062;48.726;9.370;2023-04-08T11:49:02;99177.81;;;9.75;55.36
78741;BME280;68062;48.726;9.370;2023-04-08T11:51:30;99179.03;;;10.22;55.57
78741;BME280;68062;48.726;9.370;2023-04-08T11:53:59;99173.28;;;10.68;52.74
78741;BME280;68062;48.726;9.370;2023-04-08T11:56:26;99167.16;;;10.41;51.40
78741;BME280;68062;48.726;9.370;2023-04-08T11:58:56;99162.03;;;10.47;52.80
78741;BME280;68062;48.726;9.370;2023-04-08T12:01:24;99169.88;;;10.75;51.88
78741;BME280;68062;48.726;9.370;2023-04-08T12:03:55;99164.03;;;11.32;50.59
78741;BME280;68062;48.726;9.370;2023-04-08T12:06:22;99152.78;;;10.86;49.69
78741;BME280;68062;48.726;9.370;2023-04-08T12:08:52;99171.69;;;11.12;49.92
78741;BME280;68062;48.726;9.370;2023-04-08T12:11:19;99176.00;;;11.19;50.34
78741;BME280;68062;48.726;9.370;2023-04-08T12:13:45;99176.81;;;10.95;50.86
78741;BME280;68062;48.726;9.370;2023-04-08T12:16:15;99160.47;;;10.88;52.24
78741;BME280;68062;48.726;9.370;2023-04-08T12:18:43;99182.03;;;11.16;52.09
78741;BME280;68062;48.726;9.370;2023-04-08T12:21:09;99174.34;;;11.43;52.93
78741;BME280;68062;48.726;9.370;2023-04-08T12:23:36;99176.09;;;11.70;51.93
78741;BME280;68062;48.726;9.370;2023-04-08T12:26:02;99182.09;;;11.47;53.56
78741;BME280;68062;48.726;9.370;2023-04-08T12:28:29;99188.91;;;11.17;54.34
78741;BME280;68062;48.726;9.370;2023-04-08T12:30:56;99181.19;;;11.34;54.83
78741;BME280;68062;48.726;9.370;2023-04-08T12:33:23;99176.03;;;11.41;54.91
78741;BME280;68062;48.726;9.370;2023-04-08T12:35:50;99163.16;;;11.38;53.99
78741;BME280;68062;48.726;9.370;2023-04-08T12:38:18;99182.00;;;12.47;53.12
78741;BME280;68062;48.726;9.370;2023-04-08T12:40:45;99176.81;;;12.56;51.73
78741;BME280;68062;48.726;9.370;2023-04-08T12:43:12;99176.00;;;12.45;52.96
78741;BME280;68062;48.726;9.370;2023-04-08T12:45:38;99180.28;;;12.49;51.92
78741;BME280;68062;48.726;9.370;2023-04-08T12:48:05;99176.00;;;12.46;52.46
78741;BME280;68062;48.726;9.370;2023-04-08T12:50:33;99174.31;;;12.30;52.26
78741;BME280;68062;48.726;9.370;2023-04-08T12:52:59;99181.19;;;11.34;55.38
78741;BME280;68062;48.726;9.370;2023-04-08T12:55:26;99181.19;;;11.27;56.97
78741;BME280;68062;48.726;9.370;2023-04-08T12:57:53;99182.91;;;11.34;57.22
78741;BME280;68062;48.726;9.370;2023-04-08T13:00:19;99178.66;;;11.52;56.59
78741;BME280;68062;48.726;9.370;2023-04-08T13:02:46;99190.50;;;10.87;57.50
78741;BME280;68062;48.726;9.370;2023-04-08T13:05:12;99184.63;;;11.40;57.78
78741;BME280;68062;48.726;9.370;2023-04-08T13:07:41;99176.03;;;11.41;56.72
78741;BME280;68062;48.726;9.370;2023-04-08T13:10:08;99173.50;;;11.66;56.94